Time;durP1;ratioP1;P1;durP2;ratioP2;P2;SDS_P1;SDS_P2;PMS_P1;PMS_P2;Temp;Humidity;BMP_temperature;BMP_pressure;BME280_temperature;BME280_humidity;BME280_pressure;Samples;Min_cycle;Max_cycle;Signal;HPM_P1;HPM_P2
2023/09/24 00:01:21;;;;;;;10.35;6.30;;;;;;;25.98;44.09;94894.75;6233219;27;109158;-69
2023/09/24 00:04:24;;;;;;;9.75;5.90;;;;;;;26.01;44.36;94903.28;6228072;28;109254;-69
2023/09/24 00:07:27;;;;;;;12.00;7.07;;;;;;;26.02;44.14;94902.94;6221661;27;109243;-69
2023/09/24 00:10:32;;;;;;;11.18;6.70;;;;;;;26.03;43.99;94901.03;6232707;28;108922;-69
2023/09/24 00:13:35;;;;;;;10.60;6.47;;;;;;;26.05;44.05;94904.97;6232933;27;109115;-69
2023/09/24 00:16:38;;;;;;;11.73;6.47;;;;;;;26.03;44.14;94909.88;6232179;27;109148;-69
2023/09/24 00:19:41;;;;;;;13.93;6.95;;;;;;;26.00;44.33;94899.81;6221943;28;109243;-69
2023/09/24 00:22:46;;;;;;;11.85;6.60;;;;;;;25.99;43.75;94898.22;6231534;27;109151;-69
2023/09/24 00:25:51;;;;;;;12.88;6.80;;;;;;;26.00;44.05;94897.13;6232671;28;110152;-69
2023/09/24 00:28:54;;;;;;;15.07;6.82;;;;;;;25.97;43.83;94889.72;6226979;27;109293;-69
2023/09/24 00:31:57;;;;;;;12.45;6.43;;;;;;;25.96;43.69;94888.16;6234501;27;109881;-70
2023/09/24 00:35:00;;;;;;;12.18;6.45;;;;;;;25.95;44.42;94897.34;6232815;27;110034;-69
2023/09/24 00:38:04;;;;;;;13.52;6.68;;;;;;;25.96;43.80;94901.56;6233054;27;110056;-69
2023/09/24 00:41:08;;;;;;;11.57;5.82;;;;;;;25.97;43.84;94905.81;6223712;27;110140;-69
2023/09/24 00:44:13;;;;;;;10.88;6.10;;;;;;;25.95;44.08;94892.75;6215308;28;109260;-70
2023/09/24 00:47:16;;;;;;;13.85;6.50;;;;;;;25.95;44.34;94898.13;6236697;27;109085;-68
2023/09/24 00:50:20;;;;;;;10.90;5.90;;;;;;;25.94;43.81;94898.44;6236248;28;110275;-70
2023/09/24 00:53:25;;;;;;;13.60;6.13;;;;;;;25.94;44.17;94893.88;6225312;27;109138;-70
2023/09/24 00:56:29;;;;;;;13.65;6.95;;;;;;;25.95;44.15;94898.13;6235917;27;109205;-69
2023/09/24 00:59:33;;;;;;;13.75;6.90;;;;;;;25.95;44.05;94891.97;6236107;28;109601;-69
2023/09/24 01:02:37;;;;;;;11.85;7.10;;;;;;;25.97;44.20;94895.09;6233049;27;109108;-70
2023/09/24 01:05:40;;;;;;;12.30;7.53;;;;;;;25.97;44.61;94892.41;6224068;28;109080;-70
2023/09/24 01:08:44;;;;;;;12.73;7.80;;;;;;;25.93;44.39;94873.53;6245441;27;109227;-68
2023/09/24 01:11:52;;;;;;;14.10;8.20;;;;;;;25.93;44.39;94881.59;6235848;27;109015;-68
2023/09/24 01:14:57;;;;;;;16.38;8.02;;;;;;;25.94;44.33;94871.63;6228000;28;108848;-65
2023/09/24 01:18:04;;;;;;;12.43;7.82;;;;;;;25.93;44.58;94875.44;6248333;27;109087;-70
2023/09/24 01:21:12;;;;;;;11.18;7.40;;;;;;;25.92;44.56;94887.28;6246451;27;109051;-70
2023/09/24 01:24:17;;;;;;;12.45;7.70;;;;;;;25.90;44.60;94868.84;6235057;27;109102;-69
2023/09/24 01:27:23;;;;;;;12.03;7.27;;;;;;;25.90;44.31;94865.38;6225324;27;110160;-70
2023/09/24 01:30:28;;;;;;;14.70;7.88;;;;;;;25.91;44.67;94864.28;6236056;28;113426;-66
2023/09/24 01:33:31;;;;;;;13.40;7.60;;;;;;;25.88;44.49;94860.38;6235931;27;110229;-69
2023/09/24 01:36:35;;;;;;;13.50;7.10;;;;;;;25.87;44.35;94847.25;6234567;27;109263;-69
2023/09/24 01:39:39;;;;;;;14.25;7.22;;;;;;;25.88;44.16;94854.22;6225622;28;109973;-70
2023/09/24 01:42:42;;;;;;;12.45;6.70;;;;;;;25.83;44.38;94851.72;6235492;27;109120;-69
2023/09/24 01:45:47;;;;;;;12.20;7.30;;;;;;;25.83;44.65;94857.09;6234013;28;109449;-68
2023/09/24 01:48:53;;;;;;;13.15;6.50;;;;;;;25.82;44.54;94842.13;6230574;27;110093;-68
2023/09/24 01:51:57;;;;;;;12.40;6.15;;;;;;;25.84;44.65;94856.75;6230829;27;110252;-70
2023/09/24 01:55:02;;;;;;;12.37;7.20;;;;;;;25.84;44.59;94850.63;6234402;28;109494;-69
2023/09/24 01:58:05;;;;;;;11.13;7.20;;;;;;;25.85;44.98;94862.91;6235385;28;109443;-70
2023/09/24 02:01:09;;;;;;;11.27;6.90;;;;;;;25.83;44.44;94857.09;6222263;28;109098;-69
2023/09/24 02:04:12;;;;;;;13.37;7.00;;;;;;;25.83;44.60;94851.72;6238454;27;109399;-69
2023/09/24 02:07:16;;;;;;;12.47;6.87;;;;;;;25.83;45.06;94855.19;6234392;27;109029;-68
2023/09/24 02:10:21;;;;;;;10.45;6.43;;;;;;;25.82;44.71;94850.19;6235757;28;109479;-68
2023/09/24 02:13:24;;;;;;;13.32;6.85;;;;;;;25.82;44.56;94855.53;6224090;27;110273;-69
2023/09/24 02:16:30;;;;;;;11.93;6.60;;;;;;;25.80;44.67;94855.88;6235102;28;110043;-69
2023/09/24 02:19:33;;;;;;;11.97;6.60;;;;;;;25.80;44.70;94855.09;6235025;27;109494;-65
2023/09/24 02:22:36;;;;;;;10.20;6.80;;;;;;;25.76;44.68;94862.25;6230114;27;110413;-64
2023/09/24 02:25:41;;;;;;;12.30;6.80;;;;;;;25.77;44.43;94858.44;6228550;27;109292;-65
2023/09/24 02:28:44;;;;;;;13.90;6.70;;;;;;;25.84;44.55;94864.03;6235760;27;110103;-65
2023/09/24 02:31:52;;;;;;;11.85;6.60;;;;;;;25.92;44.25;94857.78;6234355;28;109192;-65
2023/09/24 02:34:55;;;;;;;11.77;6.60;;;;;;;25.99;44.39;94849.97;6210069;28;109181;-65
2023/09/24 02:37:58;;;;;;;10.93;5.88;;;;;;;25.98;44.96;94853.75;6220384;27;109183;-65
2023/09/24 02:41:04;;;;;;;14.97;6.50;;;;;;;26.00;44.33;94851.56;6234383;28;109206;-65
2023/09/24 02:44:08;;;;;;;12.40;6.50;;;;;;;25.99;44.28;94855.31;6224683;27;109631;-65
2023/09/24 02:47:11;;;;;;;14.17;7.17;;;;;;;26.01;44.21;94853.09;6224983;27;109290;-65
2023/09/24 02:50:14;;;;;;;11.63;6.17;;;;;;;26.01;44.38;94853.09;6242559;27;109662;-64
2023/09/24 02:53:17;;;;;;;13.47;6.30;;;;;;;26.02;44.24;94852.00;6226721;27;110675;-64
2023/09/24 02:56:21;;;;;;;12.17;6.60;;;;;;;26.03;44.28;94866.97;6234720;28;109813;-66
2023/09/24 02:59:25;;;;;;;10.20;6.68;;;;;;;26.02;44.39;94864.63;6217918;27;108917;-65
2023/09/24 03:02:28;;;;;;;12.50;6.80;;;;;;;26.03;44.58;94868.88;6230406;27;110036;-65
2023/09/24 03:05:32;;;;;;;12.05;6.30;;;;;;;26.03;44.63;94855.47;6233778;28;110189;-65
2023/09/24 03:08:35;;;;;;;13.03;6.67;;;;;;;26.02;44.27;94865.41;6225458;27;109038;-64
2023/09/24 03:11:40;;;;;;;10.70;6.57;;;;;;;25.99;44.59;94860.69;6231283;28;109240;-65
2023/09/24 03:14:43;;;;;;;12.65;6.80;;;;;;;26.00;44.25;94864.97;6234105;27;111488;-66
2023/09/24 03:17:47;;;;;;;13.18;6.50;;;;;;;26.01;44.74;94863.06;6233377;27;109159;-64
2023/09/24 03:20:51;;;;;;;13.00;6.47;;;;;;;26.01;44.44;94865.75;6223032;28;109573;-65
2023/09/24 03:23:54;;;;;;;11.73;6.07;;;;;;;26.00;44.81;94867.63;6233695;27;109616;-65
2023/09/24 03:26:58;;;;;;;14.85;6.90;;;;;;;26.00;44.49;94856.91;6233523;28;109044;-65
2023/09/24 03:30:02;;;;;;;12.77;6.10;;;;;;;26.02;44.67;94865.41;6221007;27;109189;-65
2023/09/24 03:33:05;;;;;;;11.10;5.97;;;;;;;26.01;44.24;94858.47;6224854;27;110498;-65
2023/09/24 03:36:08;;;;;;;11.40;6.18;;;;;;;25.98;44.52;94865.25;6233880;28;109009;-65
2023/09/24 03:39:12;;;;;;;11.85;6.30;;;;;;;26.02;44.20;94857.34;6232312;27;109366;-66
2023/09/24 03:42:17;;;;;;;11.17;6.10;;;;;;;26.01;44.39;94868.41;6228417;28;109203;-66
2023/09/24 03:45:23;;;;;;;13.07;6.30;;;;;;;26.01;44.38;94869.19;6226516;27;109387;-65
2023/09/24 03:48:27;;;;;;;13.30;6.60;;;;;;;26.00;44.07;94867.63;6241672;27;109264;-65
2023/09/24 03:51:30;;;;;;;12.13;6.80;;;;;;;26.00;44.42;94862.28;6253506;27;109043;-65
2023/09/24 03:54:33;;;;;;;12.70;7.20;;;;;;;26.01;44.18;94869.19;6240445;27;109170;-65
2023/09/24 03:57:40;;;;;;;13.60;8.10;;;;;;;26.01;44.32;94879.16;6243191;27;108767;-65
2023/09/24 04:00:43;;;;;;;13.93;8.60;;;;;;;25.97;44.74;94874.44;6233037;28;111214;-67
2023/09/24 04:03:46;;;;;;;13.93;9.50;;;;;;;25.95;44.52;94873.97;6231791;27;109145;-66
2023/09/24 04:06:50;;;;;;;14.90;9.00;;;;;;;25.84;44.47;94878.22;6222246;28;110325;-66
2023/09/24 04:09:55;;;;;;;21.27;8.43;;;;;;;25.77;44.52;94880.66;6231825;27;109118;-66
2023/09/24 04:13:00;;;;;;;11.77;8.10;;;;;;;25.69;44.23;94885.00;6235740;27;109258;-66
2023/09/24 04:16:08;;;;;;;17.23;9.25;;;;;;;25.68;44.57;94879.97;6257173;27;109461;-62
2023/09/24 04:19:11;;;;;;;15.02;9.10;;;;;;;25.65;44.50;94873.38;6230410;27;110053;-65
2023/09/24 04:22:15;;;;;;;13.65;8.70;;;;;;;25.65;44.54;94880.63;6237104;28;109197;-65
2023/09/24 04:25:21;;;;;;;12.20;9.43;;;;;;;25.64;44.76;94887.91;6236597;27;108844;-66
2023/09/24 04:28:26;;;;;;;14.85;8.82;;;;;;;25.64;44.66;94897.84;6227121;27;109069;-65
2023/09/24 04:31:29;;;;;;;16.13;9.27;;;;;;;25.66;44.75;94907.09;6236850;28;110271;-65
2023/09/24 04:34:32;;;;;;;16.10;9.73;;;;;;;25.66;44.92;94915.16;6236662;27;109641;-66
2023/09/24 04:37:38;;;;;;;14.15;8.88;;;;;;;25.66;45.01;94928.56;6236923;28;109616;-66
2023/09/24 04:40:41;;;;;;;16.40;9.38;;;;;;;25.67;44.66;94950.78;6244651;27;109123;-71
2023/09/24 04:43:46;;;;;;;13.23;8.23;;;;;;;25.68;44.95;94945.09;6236723;27;110042;-70
2023/09/24 04:46:51;;;;;;;15.87;8.70;;;;;;;25.67;45.35;94948.88;6236242;28;109080;-68
2023/09/24 04:49:54;;;;;;;15.13;8.10;;;;;;;25.66;45.09;94954.56;6236222;27;109229;-69
2023/09/24 04:52:57;;;;;;;13.35;7.43;;;;;;;25.62;44.97;94949.09;6226037;27;110306;-70
2023/09/24 04:56:00;;;;;;;12.98;7.38;;;;;;;25.65;44.95;94958.38;6236100;28;109523;-70
2023/09/24 04:59:04;;;;;;;12.63;7.40;;;;;;;25.61;44.88;94955.56;6235965;27;109373;-70
2023/09/24 05:02:08;;;;;;;13.80;7.47;;;;;;;25.61;44.97;94954.78;6229778;28;109381;-69
2023/09/24 05:05:11;;;;;;;13.33;7.00;;;;;;;25.60;44.81;94962.03;6230052;27;109332;-70
2023/09/24 05:08:15;;;;;;;17.95;7.70;;;;;;;25.62;44.98;94956.34;6236996;27;111369;-70
2023/09/24 05:11:18;;;;;;;15.07;7.33;;;;;;;25.63;44.99;94965.97;6233889;28;110176;-71
2023/09/24 05:14:22;;;;;;;13.97;7.30;;;;;;;25.60;45.14;94962.03;6224955;27;109614;-70
2023/09/24 05:17:26;;;;;;;13.15;7.72;;;;;;;25.67;45.06;94967.63;6235781;28;109150;-68
2023/09/24 05:20:30;;;;;;;13.50;7.30;;;;;;;25.73;45.15;94956.72;6235704;27;112961;-70
2023/09/24 05:23:33;;;;;;;16.30;7.60;;;;;;;25.76;45.37;94956.84;6236155;27;109033;-69
2023/09/24 05:26:37;;;;;;;15.17;11.30;;;;;;;25.77;45.25;94955.72;6223705;27;109454;-69
2023/09/24 05:29:42;;;;;;;19.67;12.82;;;;;;;25.80;45.57;94954.28;6247859;27;109119;-68
2023/09/24 05:32:45;;;;;;;18.05;10.85;;;;;;;25.81;46.20;94950.47;6213385;28;109133;-68
2023/09/24 05:35:52;;;;;;;18.52;10.88;;;;;;;25.79;46.22;94969.59;6229422;27;109226;-68
2023/09/24 05:38:55;;;;;;;14.13;9.13;;;;;;;25.78;45.66;94976.06;6211453;27;109471;-68
2023/09/24 05:41:58;;;;;;;18.55;9.68;;;;;;;25.76;44.85;94969.47;6234604;28;109063;-69
2023/09/24 05:45:03;;;;;;;13.70;9.18;;;;;;;25.81;45.83;94970.03;6228590;27;109031;-68
2023/09/24 05:48:07;;;;;;;14.15;9.10;;;;;;;25.83;45.85;94972.38;6219889;28;109429;-69
2023/09/24 05:51:10;;;;;;;15.07;8.03;;;;;;;25.80;44.93;94970.38;6235320;27;109129;-62
2023/09/24 05:54:14;;;;;;;17.10;8.70;;;;;;;25.76;45.26;94978.28;6235004;27;109212;-62
2023/09/24 05:57:17;;;;;;;18.30;8.70;;;;;;;25.73;45.41;94980.84;6226654;28;109296;-61
2023/09/24 06:00:22;;;;;;;18.88;8.50;;;;;;;25.75;45.34;94978.63;6223913;27;109058;-61
2023/09/24 06:03:26;;;;;;;17.40;8.20;;;;;;;25.74;45.63;94977.84;6224098;27;109110;-60
2023/09/24 06:06:29;;;;;;;14.87;8.20;;;;;;;25.77;44.85;94979.06;6235071;28;110059;-61
2023/09/24 06:09:33;;;;;;;14.17;7.80;;;;;;;25.84;45.66;94987.34;6233304;27;109115;-60
2023/09/24 06:12:36;;;;;;;14.95;8.52;;;;;;;25.90;45.42;94989.50;6223135;28;109639;-60
2023/09/24 06:15:41;;;;;;;20.67;9.00;;;;;;;25.87;45.32;94992.03;6234997;27;109124;-62
2023/09/24 06:18:44;;;;;;;18.38;8.50;;;;;;;25.85;44.94;94995.06;6233897;27;109084;-60
2023/09/24 06:21:50;;;;;;;22.70;9.10;;;;;;;25.87;44.62;94989.34;6226514;28;109035;-63
2023/09/24 06:24:54;;;;;;;20.83;8.80;;;;;;;25.96;44.82;94979.34;6234485;27;109494;-61
2023/09/24 06:27:57;;;;;;;21.88;8.23;;;;;;;26.03;44.28;94974.22;6234279;28;109442;-61
2023/09/24 06:31:03;;;;;;;17.58;7.63;;;;;;;26.16;44.27;94977.72;6233807;27;109336;-60
2023/09/24 06:34:06;;;;;;;22.23;8.18;;;;;;;26.15;45.14;94984.22;6220626;27;109112;-61
2023/09/24 06:37:09;;;;;;;19.77;8.68;;;;;;;26.14;45.50;94979.97;6231280;28;110301;-60
2023/09/24 06:40:13;;;;;;;19.00;7.93;;;;;;;26.11;46.43;94981.41;6237784;27;109363;-61
2023/09/24 06:43:16;;;;;;;20.02;7.75;;;;;;;26.24;46.55;94977.63;6236641;27;110172;-63
2023/09/24 06:46:20;;;;;;;18.40;9.90;;;;;;;26.30;46.76;94980.09;6225007;27;109440;-62
2023/09/24 06:49:23;;;;;;;16.50;8.70;;;;;;;26.21;46.05;94974.81;6249442;27;109348;-60
2023/09/24 06:52:30;;;;;;;19.97;8.63;;;;;;;26.21;46.66;94975.63;6232356;28;110336;-62
2023/09/24 06:55:33;;;;;;;17.48;8.70;;;;;;;26.27;47.15;94982.34;6228159;27;109262;-62
2023/09/24 06:58:37;;;;;;;15.75;8.32;;;;;;;26.27;46.20;94971.59;6228020;28;109294;-61
2023/09/24 07:01:42;;;;;;;20.27;8.47;;;;;;;26.31;47.42;94973.59;6259030;27;109122;-66
2023/09/24 07:04:45;;;;;;;20.95;8.77;;;;;;;26.26;48.27;94975.41;6244628;27;108993;-66
2023/09/24 07:07:48;;;;;;;19.17;8.00;;;;;;;26.31;48.08;94978.97;6222115;28;109133;-64
2023/09/24 07:11:25;;;;;;;18.52;8.60;;;;;;;26.28;48.19;94980.44;6233959;27;110215;-65
2023/09/24 07:14:28;;;;;;;16.60;7.55;;;;;;;26.14;48.38;94971.91;6238811;27;109182;-65
2023/09/24 07:17:33;;;;;;;14.80;7.80;;;;;;;26.06;48.46;94970.13;6259273;27;110600;-65
2023/09/24 07:20:36;;;;;;;18.60;8.25;;;;;;;26.11;47.79;94970.69;6234710;27;109036;-64
2023/09/24 07:23:39;;;;;;;17.97;8.27;;;;;;;26.18;47.89;94976.28;6232633;28;109416;-64
2023/09/24 07:26:44;;;;;;;16.60;8.20;;;;;;;26.19;47.56;94967.09;6238522;27;109643;-65
2023/09/24 07:29:47;;;;;;;17.20;8.10;;;;;;;26.30;47.28;94972.03;6227873;27;109245;-64
2023/09/24 07:32:52;;;;;;;14.85;7.15;;;;;;;26.36;47.07;94970.69;6227992;28;108971;-65
2023/09/24 07:35:55;;;;;;;17.03;8.00;;;;;;;26.49;46.98;94966.91;6234121;27;110044;-64
2023/09/24 07:38:58;;;;;;;15.53;7.87;;;;;;;26.51;47.57;94975.41;6233744;27;110280;-64
2023/09/24 07:42:02;;;;;;;13.23;7.30;;;;;;;26.45;47.27;94968.69;6222245;27;109127;-64
2023/09/24 07:45:05;;;;;;;15.77;7.80;;;;;;;26.39;46.81;94967.38;6232890;27;110377;-65
2023/09/24 07:48:13;;;;;;;15.93;7.30;;;;;;;26.46;45.85;94957.63;6232825;28;109352;-65
2023/09/24 07:51:17;;;;;;;15.70;7.45;;;;;;;26.70;45.39;94954.16;6232964;27;109024;-65
2023/09/24 07:54:20;;;;;;;15.55;6.70;;;;;;;26.94;44.68;94948.00;6221684;27;109090;-64
2023/09/24 07:57:24;;;;;;;11.73;6.88;;;;;;;27.07;44.51;94952.22;6222598;28;109099;-65
2023/09/24 08:00:27;;;;;;;13.55;6.75;;;;;;;27.19;44.69;94954.06;6232892;27;109247;-65
2023/09/24 08:03:31;;;;;;;16.70;7.38;;;;;;;27.23;44.42;94946.91;6228650;28;110105;-64
2023/09/24 08:06:34;;;;;;;13.60;6.40;;;;;;;27.27;44.33;94941.66;6227419;27;109151;-65
2023/09/24 08:09:40;;;;;;;11.23;6.30;;;;;;;27.35;44.39;94944.19;6232394;27;109603;-59
2023/09/24 08:12:43;;;;;;;12.05;6.75;;;;;;;27.32;44.33;94947.56;6231806;28;109107;-60
2023/09/24 08:15:46;;;;;;;11.98;6.75;;;;;;;27.30;44.71;94944.44;6222509;27;109658;-60
2023/09/24 08:18:51;;;;;;;12.77;7.15;;;;;;;27.31;44.75;94934.47;6232816;28;109429;-60
2023/09/24 08:21:54;;;;;;;8.55;6.20;;;;;;;27.30;44.35;94927.53;6236119;27;110065;-59
2023/09/24 08:24:57;;;;;;;8.98;6.53;;;;;;;27.27;44.92;94937.06;6232382;27;109284;-59
2023/09/24 08:28:01;;;;;;;9.82;6.30;;;;;;;27.25;44.08;94930.44;6219849;28;109266;-60
2023/09/24 08:31:09;;;;;;;15.05;6.70;;;;;;;27.11;44.34;94928.91;6232791;27;108834;-64
2023/09/24 08:34:15;;;;;;;14.57;7.03;;;;;;;26.93;44.89;94924.16;6232357;28;111017;-65
2023/09/24 08:37:18;;;;;;;14.87;7.37;;;;;;;26.75;44.31;94934.38;6245125;27;109203;-65
2023/09/24 08:40:21;;;;;;;15.20;8.10;;;;;;;26.58;44.84;94930.00;6220794;28;109128;-65
2023/09/24 08:43:30;;;;;;;17.08;7.80;;;;;;;26.49;44.48;94921.28;6232393;28;109333;-65
2023/09/24 08:46:33;;;;;;;14.30;6.93;;;;;;;26.50;44.50;94928.22;6213731;27;109109;-65
2023/09/24 08:49:38;;;;;;;15.45;6.95;;;;;;;26.53;44.29;94924.84;6212214;27;111030;-60
2023/09/24 08:52:43;;;;;;;16.10;7.57;;;;;;;26.65;43.63;94927.56;6232799;27;109646;-60
2023/09/24 08:55:46;;;;;;;14.48;7.00;;;;;;;26.73;43.44;94920.53;6229567;27;110417;-60
2023/09/24 08:58:49;;;;;;;13.68;6.75;;;;;;;26.76;43.72;94917.94;6231267;28;108745;-60
2023/09/24 09:01:54;;;;;;;15.50;7.30;;;;;;;26.80;43.74;94915.34;6220306;27;109275;-60
2023/09/24 09:04:59;;;;;;;12.32;7.20;;;;;;;26.83;43.07;94920.03;6232484;27;110196;-60
2023/09/24 09:08:03;;;;;;;14.90;7.18;;;;;;;26.83;43.58;94910.06;6235105;28;110446;-60
2023/09/24 09:11:07;;;;;;;11.40;7.20;;;;;;;26.85;43.79;94907.03;6235983;27;110237;-59
2023/09/24 09:14:10;;;;;;;12.07;7.82;;;;;;;26.79;43.74;94911.09;6216628;27;109194;-59
2023/09/24 09:17:14;;;;;;;16.40;7.70;;;;;;;26.75;43.65;94904.84;6255461;27;109166;-62
2023/09/24 09:20:18;;;;;;;16.07;7.60;;;;;;;26.67;43.67;94905.75;6237109;27;110112;-64
2023/09/24 09:23:31;;;;;;;19.02;7.50;;;;;;;26.58;43.76;94900.47;6229414;28;110033;-66
2023/09/24 09:26:34;;;;;;;17.33;6.93;;;;;;;26.42;44.06;94902.28;6225603;27;109473;-64
2023/09/24 09:29:38;;;;;;;22.83;7.53;;;;;;;26.42;44.55;94894.25;6235323;28;109170;-65
2023/09/24 09:32:41;;;;;;;17.05;7.28;;;;;;;26.47;44.53;94902.06;6236075;27;110302;-67
2023/09/24 09:35:45;;;;;;;15.82;7.30;;;;;;;26.31;44.90;94898.50;6223849;27;109269;-66
2023/09/24 09:38:48;;;;;;;18.00;6.90;;;;;;;26.29;44.80;94901.50;6235132;28;109405;-64
2023/09/24 09:41:53;;;;;;;14.80;7.38;;;;;;;26.28;44.37;94911.47;6235932;27;109092;-63
2023/09/24 09:45:00;;;;;;;15.73;7.10;;;;;;;26.39;43.94;94908.34;6236799;27;110352;-63
2023/09/24 09:48:05;;;;;;;14.90;7.30;;;;;;;26.46;44.20;94906.63;6249385;27;110784;-64
2023/09/24 09:51:12;;;;;;;15.98;7.70;;;;;;;26.53;43.87;94909.53;6236899;27;108979;-63
2023/09/24 09:54:16;;;;;;;17.07;7.60;;;;;;;26.57;43.75;94909.66;6234642;28;109297;-63
2023/09/24 09:57:20;;;;;;;17.67;7.33;;;;;;;26.63;44.36;94908.31;6235079;27;109311;-63
2023/09/24 10:00:23;;;;;;;18.48;7.68;;;;;;;26.73;43.42;94915.16;6228128;27;109190;-64
2023/09/24 10:03:28;;;;;;;15.75;7.50;;;;;;;26.72;43.00;94919.75;6235129;28;109152;-63
2023/09/24 10:06:35;;;;;;;17.73;6.95;;;;;;;26.65;42.64;94916.03;6224160;27;111289;-63
2023/09/24 10:09:39;;;;;;;16.33;7.18;;;;;;;26.69;42.58;94914.25;6218433;27;109280;-63
2023/09/24 10:12:43;;;;;;;14.85;6.63;;;;;;;26.79;42.87;94913.78;6233960;27;109060;-63
2023/09/24 10:15:46;;;;;;;15.93;7.03;;;;;;;26.72;43.27;94911.69;6231505;27;110164;-64
2023/09/24 10:18:56;;;;;;;16.17;7.33;;;;;;;26.73;43.10;94909.78;6233206;28;109330;-63
2023/09/24 10:22:24;;;;;;;13.95;6.55;;;;;;;26.70;43.24;94905.84;6223404;27;109326;-64
2023/09/24 10:25:34;;;;;;;13.38;6.80;;;;;;;26.68;43.20;94901.94;6232699;27;111312;-64
2023/09/24 10:28:48;;;;;;;16.17;6.80;;;;;;;26.68;43.52;94910.78;6233835;28;109900;-64
2023/09/24 10:32:15;;;;;;;18.45;7.25;;;;;;;26.58;43.75;94909.31;6222790;27;109166;-65
2023/09/24 10:35:19;;;;;;;12.15;7.20;;;;;;;26.54;43.61;94896.88;6233110;27;109613;-68
2023/09/24 10:38:23;;;;;;;18.52;7.30;;;;;;;26.51;43.69;94903.72;6232360;28;109152;-69
2023/09/24 10:41:26;;;;;;;18.15;7.40;;;;;;;26.43;44.27;94901.94;6235011;27;108841;-68
2023/09/24 10:44:30;;;;;;;15.13;7.03;;;;;;;26.39;43.97;94897.59;6222206;27;109582;-67
2023/09/24 10:47:35;;;;;;;16.88;7.40;;;;;;;26.37;43.82;94895.22;6232279;27;109150;-68
2023/09/24 10:50:41;;;;;;;13.55;6.45;;;;;;;26.35;43.78;94888.63;6233144;27;109324;-68
2023/09/24 10:53:45;;;;;;;13.93;6.78;;;;;;;26.33;43.99;94885.50;6233552;28;108987;-68
2023/09/24 10:56:48;;;;;;;14.88;7.13;;;;;;;26.32;44.24;94883.94;6229250;27;109128;-68
2023/09/24 10:59:52;;;;;;;16.38;7.35;;;;;;;26.31;43.73;94882.38;6233382;28;109419;-70
2023/09/24 11:02:56;;;;;;;14.90;6.83;;;;;;;26.26;43.80;94875.34;6231308;27;109360;-68
2023/09/24 11:06:01;;;;;;;15.57;7.00;;;;;;;26.25;43.68;94879.94;6230245;27;110193;-64
2023/09/24 11:09:17;;;;;;;16.40;8.32;;;;;;;26.25;44.13;94881.84;6232407;28;109205;-67
2023/09/24 11:12:20;;;;;;;15.18;6.60;;;;;;;26.25;43.73;94871.91;6233582;27;110159;-69
2023/09/24 11:15:25;;;;;;;16.00;7.10;;;;;;;26.22;44.46;94875.25;6234071;27;109046;-66
2023/09/24 11:18:29;;;;;;;18.97;7.50;;;;;;;26.28;44.40;94873.91;6217411;28;109299;-68
2023/09/24 11:21:32;;;;;;;15.05;7.30;;;;;;;26.32;44.27;94875.91;6230037;27;109777;-68
2023/09/24 11:24:37;;;;;;;19.88;7.10;;;;;;;26.32;43.95;94875.91;6223634;27;110255;-68
2023/09/24 11:27:47;;;;;;;14.13;7.10;;;;;;;26.30;44.07;94875.47;6232519;27;109314;-68
2023/09/24 11:30:52;;;;;;;15.00;6.78;;;;;;;26.31;43.76;94871.66;6221588;27;109596;-68
2023/09/24 11:33:57;;;;;;;17.38;7.00;;;;;;;26.33;44.19;94880.94;6223658;27;110110;-68
2023/09/24 11:37:05;;;;;;;14.82;7.13;;;;;;;26.44;43.88;94878.59;6226247;27;110104;-70
2023/09/24 11:40:21;;;;;;;15.05;7.30;;;;;;;26.64;43.28;94872.31;6219969;27;110082;-62
2023/09/24 11:43:24;;;;;;;16.00;6.80;;;;;;;26.73;43.56;94875.66;6231759;27;109200;-60
2023/09/24 11:46:28;;;;;;;12.25;6.38;;;;;;;26.74;43.90;94877.22;6232919;27;110188;-61
2023/09/24 11:49:32;;;;;;;15.63;6.93;;;;;;;26.80;43.44;94881.22;6232280;28;109237;-61
2023/09/24 11:52:35;;;;;;;12.43;6.60;;;;;;;26.84;44.08;94887.47;6236749;27;109405;-61
2023/09/24 11:55:40;;;;;;;12.97;6.80;;;;;;;26.84;44.24;94882.09;6250851;27;110446;-62
2023/09/24 11:58:44;;;;;;;13.13;6.63;;;;;;;26.89;43.94;94880.31;6227266;28;109249;-61
2023/09/24 12:01:47;;;;;;;11.52;6.78;;;;;;;26.87;44.08;94886.78;6232274;27;109313;-61
2023/09/24 12:04:50;;;;;;;14.00;7.05;;;;;;;26.87;44.14;94883.31;6221776;28;109153;-61
2023/09/24 12:07:54;;;;;;;12.88;6.35;;;;;;;26.89;44.30;94888.38;6231847;27;109212;-61
2023/09/24 12:10:58;;;;;;;12.83;6.70;;;;;;;26.89;43.87;94885.69;6231949;27;109881;-60
2023/09/24 12:14:01;;;;;;;10.15;6.30;;;;;;;26.91;44.13;94888.81;6227173;28;109420;-61
2023/09/24 12:17:04;;;;;;;12.38;6.10;;;;;;;26.92;44.19;94880.41;6227570;27;108905;-61
2023/09/24 12:20:09;;;;;;;14.27;6.75;;;;;;;26.93;44.21;94889.25;6232447;28;109312;-60
2023/09/24 12:23:12;;;;;;;11.90;6.40;;;;;;;26.94;43.70;94882.75;6232168;27;109511;-61
2023/09/24 12:26:17;;;;;;;13.90;6.20;;;;;;;26.96;44.21;94888.56;6220944;27;109577;-60
2023/09/24 12:29:20;;;;;;;13.65;6.30;;;;;;;26.96;43.80;94877.81;6231753;28;109586;-61
2023/09/24 12:32:23;;;;;;;12.27;6.18;;;;;;;26.97;44.07;94882.06;6232609;27;110238;-61
2023/09/24 12:35:26;;;;;;;11.02;6.53;;;;;;;26.97;43.90;94879.38;6232095;28;108812;-62
2023/09/24 12:38:30;;;;;;;11.53;6.00;;;;;;;26.97;44.16;94888.22;6224486;27;109167;-62
2023/09/24 12:41:34;;;;;;;9.73;5.80;;;;;;;26.97;44.36;94887.44;6231176;27;109837;-60
2023/09/24 12:44:38;;;;;;;12.15;5.95;;;;;;;26.98;43.85;94884.41;6212497;28;110357;-61
2023/09/24 12:47:41;;;;;;;10.43;6.10;;;;;;;26.98;44.53;94892.47;6226014;27;109857;-60
2023/09/24 12:50:47;;;;;;;10.75;6.30;;;;;;;27.00;44.55;94898.28;6231269;28;108936;-59
2023/09/24 12:53:50;;;;;;;14.13;6.75;;;;;;;27.00;44.42;94898.28;6233786;27;109195;-59
2023/09/24 12:56:54;;;;;;;11.00;6.68;;;;;;;26.93;44.27;94900.78;6233706;27;110529;-61
2023/09/24 12:59:58;;;;;;;12.00;7.10;;;;;;;26.94;44.35;94893.50;6224613;28;109556;-61
2023/09/24 13:03:01;;;;;;;16.17;7.03;;;;;;;26.98;44.25;94889.78;6247360;27;109200;-60
2023/09/24 13:06:16;;;;;;;13.23;6.68;;;;;;;27.02;43.79;94879.91;6229693;27;110000;-61
2023/09/24 13:09:20;;;;;;;10.73;6.65;;;;;;;27.02;44.01;94879.13;6232206;28;109060;-60
2023/09/24 13:12:25;;;;;;;12.00;6.25;;;;;;;27.02;44.51;94873.75;6224268;27;109150;-60
2023/09/24 13:15:28;;;;;;;12.53;7.00;;;;;;;27.04;44.79;94874.19;6230012;28;108827;-60
2023/09/24 13:18:31;;;;;;;12.67;7.00;;;;;;;27.05;44.48;94878.44;6236499;27;110163;-62
2023/09/24 13:21:34;;;;;;;13.40;7.10;;;;;;;27.05;44.66;94884.63;6223423;27;109420;-60
2023/09/24 13:24:39;;;;;;;13.63;6.43;;;;;;;27.03;44.92;94878.00;6226207;27;109135;-60
2023/09/24 13:27:44;;;;;;;10.55;6.00;;;;;;;27.05;44.38;94887.31;6221000;27;109030;-61
2023/09/24 13:30:47;;;;;;;10.33;6.37;;;;;;;27.03;45.18;94886.06;6241636;27;110125;-60
2023/09/24 13:33:50;;;;;;;12.00;7.00;;;;;;;27.04;44.76;94888.41;6220610;27;110421;-61
2023/09/24 13:36:53;;;;;;;10.27;6.50;;;;;;;27.05;44.69;94890.00;6228336;27;109311;-60
2023/09/24 13:39:56;;;;;;;14.20;6.90;;;;;;;27.03;44.68;94894.13;6234910;28;109111;-62
2023/09/24 13:43:01;;;;;;;10.97;6.10;;;;;;;27.05;44.68;94906.13;6235810;27;109226;-61
2023/09/24 13:46:04;;;;;;;12.20;6.60;;;;;;;27.04;44.57;94909.91;6224583;28;109108;-61
2023/09/24 13:49:07;;;;;;;13.80;6.63;;;;;;;27.06;44.46;94928.38;6234244;27;109394;-61
2023/09/24 13:52:10;;;;;;;11.05;6.90;;;;;;;27.04;44.52;94917.19;6235092;27;109128;-61
2023/09/24 13:55:13;;;;;;;15.23;6.85;;;;;;;27.05;45.05;94910.69;6233062;28;110323;-61
2023/09/24 13:58:18;;;;;;;12.60;7.00;;;;;;;27.03;44.49;94907.56;6224613;27;110153;-61
2023/09/24 14:01:22;;;;;;;16.92;7.65;;;;;;;26.99;45.37;94890.56;6234879;28;109240;-61
2023/09/24 14:04:25;;;;;;;14.68;7.28;;;;;;;26.93;45.62;94889.25;6235722;27;109068;-62
2023/09/24 14:07:28;;;;;;;20.15;13.30;;;;;;;26.91;45.49;94921.03;6230359;27;109639;-62